QTR93W OTHH-VABB
Flight info
| Callsign | QTR93W |
|---|---|
| Flight time | N/A |
| Altitude | 35000 |
| Route | KUPRO N300 NOLSU/N0491F390 DCT TONVO P307 VAXIM L301 KARKU M638 EXOLU POKON2A |
| Aircraft | A35K/H-SDE2E3GHIJ3J4J5LM1ORWXY/LB1D1 |
Departure
| Time | N/A |
|---|---|
| Airport | Hamad International Airport (OTHH) |
Arrival
| Time | 2026-05-06 14:16 |
|---|---|
| Airport | Chhatrapati Shivaji Maharaj International Airport (VABB) |
| Time | Latitude | Longitude | Altitude | Speed | Heading |
|---|---|---|---|---|---|
| 2026-05-06 13:06 | 22.04521 | 66.48800 | 38817 ft | 512 kts | 114° |
| 2026-05-06 13:07 | 22.03179 | 66.52148 | 38820 ft | 517 kts | 114° |
| 2026-05-06 13:07 | 22.00329 | 66.59284 | 38814 ft | 518 kts | 114° |
| 2026-05-06 13:08 | 21.97487 | 66.66418 | 38810 ft | 518 kts | 114° |
| 2026-05-06 13:08 | 21.94644 | 66.73544 | 38814 ft | 518 kts | 114° |
| 2026-05-06 13:09 | 21.91795 | 66.80676 | 38813 ft | 518 kts | 114° |
| 2026-05-06 13:09 | 21.88941 | 66.87804 | 38819 ft | 518 kts | 114° |
| 2026-05-06 13:10 | 21.86086 | 66.94927 | 38801 ft | 518 kts | 114° |
| 2026-05-06 13:10 | 21.83242 | 67.02012 | 38817 ft | 518 kts | 114° |
| 2026-05-06 13:11 | 21.80365 | 67.09167 | 38809 ft | 518 kts | 114° |
| 2026-05-06 13:11 | 21.77500 | 67.16281 | 38805 ft | 518 kts | 114° |
| 2026-05-06 13:12 | 21.74634 | 67.23390 | 38816 ft | 518 kts | 114° |
| 2026-05-06 13:12 | 21.71764 | 67.30496 | 38815 ft | 518 kts | 114° |
| 2026-05-06 13:13 | 21.68892 | 67.37597 | 38814 ft | 518 kts | 114° |
| 2026-05-06 13:13 | 21.66016 | 67.44698 | 38812 ft | 518 kts | 114° |
| 2026-05-06 13:14 | 21.63136 | 67.51801 | 38815 ft | 518 kts | 114° |
| 2026-05-06 13:14 | 21.60271 | 67.58855 | 38813 ft | 518 kts | 114° |
| 2026-05-06 13:15 | 21.57385 | 67.65949 | 38805 ft | 518 kts | 114° |
| 2026-05-06 13:15 | 21.54497 | 67.73039 | 38814 ft | 518 kts | 114° |
| 2026-05-06 13:16 | 21.51604 | 67.80130 | 38818 ft | 518 kts | 114° |
| 2026-05-06 13:16 | 21.48696 | 67.87248 | 38813 ft | 518 kts | 114° |
| 2026-05-06 13:17 | 21.45812 | 67.94299 | 38814 ft | 518 kts | 114° |
| 2026-05-06 13:17 | 21.42895 | 68.01420 | 38810 ft | 518 kts | 114° |
| 2026-05-06 13:18 | 21.40015 | 68.08438 | 38814 ft | 518 kts | 114° |
| 2026-05-06 13:18 | 21.37108 | 68.15514 | 38813 ft | 518 kts | 114° |
| 2026-05-06 13:19 | 21.34200 | 68.22584 | 38811 ft | 518 kts | 114° |
| 2026-05-06 13:19 | 21.31290 | 68.29646 | 38813 ft | 518 kts | 114° |
| 2026-05-06 13:20 | 21.28376 | 68.36709 | 38807 ft | 518 kts | 114° |
| 2026-05-06 13:20 | 21.25462 | 68.43761 | 38813 ft | 518 kts | 114° |
| 2026-05-06 13:21 | 21.22543 | 68.50815 | 38808 ft | 518 kts | 114° |
| 2026-05-06 13:21 | 21.19618 | 68.57876 | 38805 ft | 518 kts | 114° |
| 2026-05-06 13:22 | 21.16707 | 68.64892 | 38810 ft | 518 kts | 114° |
| 2026-05-06 13:22 | 21.13779 | 68.71940 | 38809 ft | 518 kts | 114° |
| 2026-05-06 13:23 | 21.10830 | 68.79026 | 38811 ft | 518 kts | 114° |
| 2026-05-06 13:23 | 21.07915 | 68.86024 | 38803 ft | 518 kts | 114° |
| 2026-05-06 13:24 | 21.04979 | 68.93061 | 38804 ft | 518 kts | 114° |
| 2026-05-06 13:24 | 21.02040 | 69.00095 | 38804 ft | 518 kts | 114° |
| 2026-05-06 13:25 | 20.99098 | 69.07128 | 38803 ft | 518 kts | 114° |
| 2026-05-06 13:25 | 20.96506 | 69.14311 | 38804 ft | 518 kts | 108° |
| 2026-05-06 13:26 | 20.94275 | 69.21633 | 38806 ft | 518 kts | 108° |
| 2026-05-06 13:26 | 20.92055 | 69.28968 | 38807 ft | 518 kts | 108° |
| 2026-05-06 13:27 | 20.89999 | 69.35765 | 38804 ft | 518 kts | 108° |
| 2026-05-06 13:27 | 20.87782 | 69.43087 | 38800 ft | 518 kts | 108° |
| 2026-05-06 13:28 | 20.85557 | 69.50423 | 38802 ft | 518 kts | 108° |
| 2026-05-06 13:28 | 20.83330 | 69.57753 | 38800 ft | 518 kts | 108° |
| 2026-05-06 13:29 | 20.81102 | 69.65079 | 38800 ft | 518 kts | 108° |
| 2026-05-06 13:29 | 20.78870 | 69.72401 | 38793 ft | 518 kts | 108° |
| 2026-05-06 13:30 | 20.76632 | 69.79730 | 38794 ft | 518 kts | 108° |
| 2026-05-06 13:30 | 20.74398 | 69.87038 | 38794 ft | 518 kts | 108° |
| 2026-05-06 13:31 | 20.72189 | 69.94248 | 38799 ft | 518 kts | 108° |
| 2026-05-06 13:31 | 20.69925 | 70.01628 | 38790 ft | 518 kts | 108° |
| 2026-05-06 13:32 | 20.67682 | 70.08926 | 38800 ft | 518 kts | 108° |
| 2026-05-06 13:32 | 20.65433 | 70.16231 | 38790 ft | 518 kts | 108° |
| 2026-05-06 13:33 | 20.63178 | 70.23543 | 38796 ft | 518 kts | 108° |
| 2026-05-06 13:33 | 20.60921 | 70.30849 | 38787 ft | 518 kts | 108° |
| 2026-05-06 13:34 | 20.58664 | 70.38144 | 38794 ft | 518 kts | 108° |
| 2026-05-06 13:34 | 20.56404 | 70.45440 | 38788 ft | 518 kts | 108° |
| 2026-05-06 13:35 | 20.54137 | 70.52742 | 38793 ft | 518 kts | 108° |
| 2026-05-06 13:35 | 20.51869 | 70.60036 | 38788 ft | 518 kts | 108° |
| 2026-05-06 13:36 | 20.49600 | 70.67323 | 38789 ft | 518 kts | 108° |
| 2026-05-06 13:36 | 20.47322 | 70.74624 | 38783 ft | 518 kts | 108° |
| 2026-05-06 13:37 | 20.45059 | 70.81866 | 38782 ft | 518 kts | 108° |
| 2026-05-06 13:37 | 20.42762 | 70.89206 | 38786 ft | 518 kts | 108° |
| 2026-05-06 13:38 | 20.40494 | 70.96444 | 38781 ft | 518 kts | 108° |
| 2026-05-06 13:38 | 20.38206 | 71.03729 | 38782 ft | 519 kts | 108° |
| 2026-05-06 13:39 | 20.35916 | 71.11012 | 38778 ft | 519 kts | 108° |
| 2026-05-06 13:39 | 20.33616 | 71.18314 | 38735 ft | 518 kts | 108° |
| 2026-05-06 13:40 | 20.31331 | 71.25558 | 38617 ft | 507 kts | 108° |
| 2026-05-06 13:40 | 20.30217 | 71.29083 | 38440 ft | 498 kts | 109° |
| 2026-05-06 13:40 | 20.29109 | 71.32590 | 37687 ft | 501 kts | 108° |
| 2026-05-06 13:40 | 20.27997 | 71.36102 | 37026 ft | 502 kts | 108° |
| 2026-05-06 13:41 | 20.26880 | 71.39630 | 36390 ft | 503 kts | 108° |
| 2026-05-06 13:41 | 20.25759 | 71.43168 | 35746 ft | 504 kts | 108° |
| 2026-05-06 13:41 | 20.24634 | 71.46713 | 35085 ft | 506 kts | 108° |
| 2026-05-06 13:41 | 20.23505 | 71.50272 | 34398 ft | 509 kts | 108° |
| 2026-05-06 13:42 | 20.22356 | 71.53857 | 33609 ft | 513 kts | 109° |
| 2026-05-06 13:42 | 20.20815 | 71.57277 | 32804 ft | 516 kts | 123° |
| 2026-05-06 13:42 | 20.18589 | 71.60282 | 32004 ft | 517 kts | 133° |
| 2026-05-06 13:42 | 20.16139 | 71.63090 | 31175 ft | 521 kts | 134° |
| 2026-05-06 13:43 | 20.13647 | 71.65918 | 30335 ft | 524 kts | 133° |
| 2026-05-06 13:43 | 20.11148 | 71.68769 | 29413 ft | 529 kts | 133° |
| 2026-05-06 13:43 | 20.08646 | 71.71635 | 28683 ft | 527 kts | 133° |
| 2026-05-06 13:43 | 20.06158 | 71.74490 | 27999 ft | 525 kts | 133° |
| 2026-05-06 13:44 | 20.03686 | 71.77329 | 27329 ft | 522 kts | 133° |
| 2026-05-06 13:44 | 20.01226 | 71.80155 | 26681 ft | 519 kts | 133° |
| 2026-05-06 13:44 | 19.98782 | 71.82962 | 26029 ft | 517 kts | 133° |
| 2026-05-06 13:44 | 19.96341 | 71.85764 | 25410 ft | 514 kts | 133° |
| 2026-05-06 13:45 | 19.93941 | 71.88518 | 25258 ft | 500 kts | 133° |
| 2026-05-06 13:45 | 19.89368 | 71.93764 | 24928 ft | 475 kts | 133° |
| 2026-05-06 13:45 | 19.87138 | 71.96321 | 24710 ft | 464 kts | 133° |
| 2026-05-06 13:46 | 19.84967 | 71.98807 | 24507 ft | 454 kts | 134° |
| 2026-05-06 13:46 | 19.82839 | 72.01245 | 24314 ft | 445 kts | 134° |
| 2026-05-06 13:46 | 19.80759 | 72.03626 | 24116 ft | 436 kts | 134° |
| 2026-05-06 13:46 | 19.78718 | 72.05962 | 23920 ft | 427 kts | 134° |
| 2026-05-06 13:47 | 19.76668 | 72.08198 | 23723 ft | 417 kts | 138° |
| 2026-05-06 13:47 | 19.74551 | 72.10249 | 23501 ft | 410 kts | 139° |
| 2026-05-06 13:47 | 19.72448 | 72.12241 | 22963 ft | 400 kts | 140° |
| 2026-05-06 13:47 | 19.70384 | 72.14194 | 22113 ft | 395 kts | 139° |
| 2026-05-06 13:48 | 19.68349 | 72.16122 | 21525 ft | 391 kts | 139° |
| 2026-05-06 13:48 | 19.66331 | 72.18036 | 21220 ft | 386 kts | 139° |
| 2026-05-06 13:48 | 19.64349 | 72.19916 | 20890 ft | 382 kts | 139° |
| 2026-05-06 13:48 | 19.62385 | 72.21780 | 20531 ft | 378 kts | 139° |
| 2026-05-06 13:49 | 19.60418 | 72.23646 | 20176 ft | 374 kts | 139° |
| 2026-05-06 13:49 | 19.58508 | 72.25458 | 19527 ft | 366 kts | 139° |
| 2026-05-06 13:49 | 19.56619 | 72.27249 | 18943 ft | 363 kts | 139° |
| 2026-05-06 13:49 | 19.54758 | 72.29014 | 18509 ft | 353 kts | 139° |
| 2026-05-06 13:50 | 19.52961 | 72.30717 | 18124 ft | 340 kts | 139° |
| 2026-05-06 13:50 | 19.51212 | 72.32375 | 17724 ft | 338 kts | 138° |
| 2026-05-06 13:50 | 19.49453 | 72.34040 | 17341 ft | 338 kts | 138° |
| 2026-05-06 13:50 | 19.47704 | 72.35696 | 16966 ft | 338 kts | 138° |
| 2026-05-06 13:51 | 19.45950 | 72.37356 | 16585 ft | 338 kts | 138° |
| 2026-05-06 13:51 | 19.44198 | 72.39014 | 16214 ft | 336 kts | 138° |
| 2026-05-06 13:51 | 19.42461 | 72.40658 | 15845 ft | 334 kts | 138° |
| 2026-05-06 13:51 | 19.40738 | 72.42288 | 15466 ft | 331 kts | 138° |
| 2026-05-06 13:52 | 19.39027 | 72.43906 | 15113 ft | 329 kts | 137° |
| 2026-05-06 13:52 | 19.37342 | 72.45498 | 14752 ft | 327 kts | 137° |
| 2026-05-06 13:52 | 19.35654 | 72.47094 | 14392 ft | 325 kts | 137° |
| 2026-05-06 13:52 | 19.33977 | 72.48678 | 14035 ft | 322 kts | 137° |
| 2026-05-06 13:53 | 19.32310 | 72.50253 | 13683 ft | 320 kts | 137° |
| 2026-05-06 13:53 | 19.30652 | 72.51819 | 13300 ft | 317 kts | 137° |
| 2026-05-06 13:53 | 19.29013 | 72.53368 | 12939 ft | 314 kts | 138° |
| 2026-05-06 13:53 | 19.27410 | 72.54881 | 12784 ft | 303 kts | 138° |
| 2026-05-06 13:54 | 19.25861 | 72.56343 | 12652 ft | 292 kts | 138° |
| 2026-05-06 13:54 | 19.24366 | 72.57753 | 12363 ft | 284 kts | 138° |
| 2026-05-06 13:54 | 19.22936 | 72.59129 | 12024 ft | 273 kts | 135° |
| 2026-05-06 13:54 | 19.21875 | 72.60740 | 11709 ft | 263 kts | 111° |
| 2026-05-06 13:55 | 19.21554 | 72.62625 | 11674 ft | 269 kts | 92° |
| 2026-05-06 13:55 | 19.21524 | 72.64650 | 11668 ft | 279 kts | 90° |
| 2026-05-06 13:55 | 19.21528 | 72.66713 | 11631 ft | 281 kts | 90° |
| 2026-05-06 13:55 | 19.21528 | 72.68773 | 11592 ft | 281 kts | 91° |
| 2026-05-06 13:56 | 19.21522 | 72.70853 | 11567 ft | 283 kts | 91° |
| 2026-05-06 13:56 | 19.21513 | 72.72933 | 11516 ft | 282 kts | 91° |
| 2026-05-06 13:56 | 19.21503 | 72.75005 | 11477 ft | 281 kts | 91° |
| 2026-05-06 13:56 | 19.21491 | 72.77073 | 11438 ft | 281 kts | 91° |
| 2026-05-06 13:57 | 19.21479 | 72.79140 | 11401 ft | 281 kts | 91° |
| 2026-05-06 13:57 | 19.21465 | 72.81202 | 11359 ft | 281 kts | 91° |
| 2026-05-06 13:57 | 19.21452 | 72.83261 | 11322 ft | 280 kts | 91° |
| 2026-05-06 13:57 | 19.21438 | 72.85332 | 11281 ft | 280 kts | 91° |
| 2026-05-06 13:58 | 19.21424 | 72.87391 | 11247 ft | 280 kts | 91° |
| 2026-05-06 13:58 | 19.21410 | 72.89454 | 11231 ft | 280 kts | 91° |
| 2026-05-06 13:58 | 19.21396 | 72.91510 | 11193 ft | 280 kts | 91° |
| 2026-05-06 13:58 | 19.21381 | 72.93575 | 11144 ft | 280 kts | 91° |
| 2026-05-06 13:59 | 19.21366 | 72.95632 | 11118 ft | 280 kts | 91° |
| 2026-05-06 13:59 | 19.21351 | 72.97691 | 11083 ft | 280 kts | 91° |
| 2026-05-06 13:59 | 19.21335 | 72.99751 | 11038 ft | 280 kts | 91° |
| 2026-05-06 13:59 | 19.21320 | 73.01806 | 11004 ft | 280 kts | 91° |
| 2026-05-06 14:00 | 19.21304 | 73.03862 | 10961 ft | 280 kts | 91° |
| 2026-05-06 14:00 | 19.21288 | 73.05918 | 10920 ft | 279 kts | 91° |
| 2026-05-06 14:00 | 19.21272 | 73.07976 | 10888 ft | 279 kts | 91° |
| 2026-05-06 14:00 | 19.21256 | 73.10027 | 10852 ft | 279 kts | 91° |
| 2026-05-06 14:01 | 19.21239 | 73.12082 | 10818 ft | 279 kts | 91° |
| 2026-05-06 14:01 | 19.21222 | 73.14135 | 10784 ft | 279 kts | 91° |
| 2026-05-06 14:01 | 19.21220 | 73.16188 | 10782 ft | 279 kts | 90° |
| 2026-05-06 14:01 | 19.21246 | 73.18239 | 10783 ft | 279 kts | 90° |
| 2026-05-06 14:02 | 19.21272 | 73.20291 | 10787 ft | 279 kts | 90° |
| 2026-05-06 14:02 | 19.21296 | 73.22335 | 10683 ft | 277 kts | 90° |
| 2026-05-06 14:02 | 19.21318 | 73.24358 | 10130 ft | 275 kts | 90° |
| 2026-05-06 14:02 | 19.21339 | 73.26386 | 9634 ft | 277 kts | 90° |
| 2026-05-06 14:03 | 19.21358 | 73.28433 | 9461 ft | 280 kts | 90° |
| 2026-05-06 14:03 | 19.21377 | 73.30459 | 9240 ft | 276 kts | 90° |
| 2026-05-06 14:03 | 19.21396 | 73.32485 | 9042 ft | 275 kts | 90° |
| 2026-05-06 14:03 | 19.21414 | 73.34505 | 8849 ft | 275 kts | 89° |
| 2026-05-06 14:04 | 19.21433 | 73.36532 | 8656 ft | 274 kts | 89° |
| 2026-05-06 14:04 | 19.21451 | 73.38547 | 8464 ft | 274 kts | 89° |
| 2026-05-06 14:04 | 19.21469 | 73.40561 | 8292 ft | 273 kts | 89° |
| 2026-05-06 14:04 | 19.21486 | 73.42548 | 8186 ft | 266 kts | 89° |
| 2026-05-06 14:05 | 19.21421 | 73.44465 | 8045 ft | 256 kts | 99° |
| 2026-05-06 14:05 | 19.20725 | 73.46136 | 7918 ft | 248 kts | 131° |
| 2026-05-06 14:05 | 19.19330 | 73.47151 | 7786 ft | 245 kts | 165° |
| 2026-05-06 14:05 | 19.17629 | 73.47561 | 7850 ft | 261 kts | 174° |
| 2026-05-06 14:06 | 19.15859 | 73.47443 | 7822 ft | 248 kts | 200° |
| 2026-05-06 14:06 | 19.14482 | 73.46477 | 7824 ft | 237 kts | 232° |
| 2026-05-06 14:06 | 19.13840 | 73.44907 | 7818 ft | 235 kts | 265° |
| 2026-05-06 14:06 | 19.14115 | 73.43227 | 7821 ft | 235 kts | 297° |
| 2026-05-06 14:07 | 19.15154 | 73.41899 | 7844 ft | 238 kts | 311° |
| 2026-05-06 14:07 | 19.15770 | 73.40312 | 7879 ft | 236 kts | 274° |
| 2026-05-06 14:07 | 19.15722 | 73.38592 | 7889 ft | 238 kts | 261° |
| 2026-05-06 14:07 | 19.15472 | 73.36858 | 7594 ft | 240 kts | 259° |
| 2026-05-06 14:08 | 19.15114 | 73.35147 | 7114 ft | 237 kts | 258° |
| 2026-05-06 14:08 | 19.14758 | 73.33446 | 6674 ft | 238 kts | 259° |
| 2026-05-06 14:08 | 19.14235 | 73.31794 | 6378 ft | 237 kts | 240° |
| 2026-05-06 14:08 | 19.13360 | 73.30336 | 6128 ft | 234 kts | 239° |
| 2026-05-06 14:09 | 19.12462 | 73.28903 | 5897 ft | 234 kts | 238° |
| 2026-05-06 14:09 | 19.11562 | 73.27468 | 5669 ft | 235 kts | 238° |
| 2026-05-06 14:09 | 19.10712 | 73.25995 | 5383 ft | 235 kts | 242° |
| 2026-05-06 14:09 | 19.09915 | 73.24500 | 5278 ft | 233 kts | 246° |
| 2026-05-06 14:10 | 19.09460 | 73.22872 | 5278 ft | 231 kts | 264° |
| 2026-05-06 14:10 | 19.09367 | 73.21182 | 5282 ft | 230 kts | 271° |
| 2026-05-06 14:10 | 19.09345 | 73.19493 | 5275 ft | 230 kts | 270° |
| 2026-05-06 14:10 | 19.09320 | 73.18371 | 5271 ft | 231 kts | 270° |
| 2026-05-06 14:11 | 19.09277 | 73.16101 | 5119 ft | 231 kts | 271° |
| 2026-05-06 14:11 | 19.09256 | 73.14402 | 4858 ft | 231 kts | 271° |
| 2026-05-06 14:11 | 19.09239 | 73.13277 | 4648 ft | 232 kts | 271° |
| 2026-05-06 14:11 | 19.09214 | 73.11566 | 4302 ft | 233 kts | 271° |
| 2026-05-06 14:12 | 19.09191 | 73.09848 | 3947 ft | 234 kts | 271° |
| 2026-05-06 14:12 | 19.09167 | 73.08129 | 3630 ft | 234 kts | 272° |
| 2026-05-06 14:12 | 19.09143 | 73.06410 | 3326 ft | 233 kts | 271° |
| 2026-05-06 14:12 | 19.09119 | 73.04705 | 3035 ft | 232 kts | 272° |
| 2026-05-06 14:13 | 19.09097 | 73.02999 | 2740 ft | 231 kts | 272° |
| 2026-05-06 14:13 | 19.09073 | 73.01333 | 2449 ft | 220 kts | 271° |
| 2026-05-06 14:13 | 19.09049 | 72.99761 | 2178 ft | 208 kts | 272° |
| 2026-05-06 14:13 | 19.09030 | 72.98276 | 1925 ft | 197 kts | 272° |
| 2026-05-06 14:14 | 19.09010 | 72.96868 | 1691 ft | 185 kts | 271° |
| 2026-05-06 14:14 | 19.08990 | 72.95552 | 1466 ft | 175 kts | 271° |
| 2026-05-06 14:14 | 19.08976 | 72.94299 | 1232 ft | 166 kts | 270° |
| 2026-05-06 14:14 | 19.08957 | 72.93108 | 1025 ft | 157 kts | 272° |
| 2026-05-06 14:15 | 19.08943 | 72.91978 | 845 ft | 149 kts | 272° |
| 2026-05-06 14:15 | 19.08928 | 72.90897 | 666 ft | 146 kts | 272° |
| 2026-05-06 14:15 | 19.08912 | 72.89847 | 455 ft | 138 kts | 273° |
| 2026-05-06 14:15 | 19.08900 | 72.88831 | 302 ft | 140 kts | 274° |
| 2026-05-06 14:16 | 19.08884 | 72.87807 | 132 ft | 139 kts | 271° |
| 2026-05-06 14:16 | 19.08861 | 72.86813 | 60 ft | 132 kts | 271° |
| 2026-05-06 14:16 | 19.08861 | 72.86061 | 53 ft | 60 kts | 270° |
| 2026-05-06 14:16 | 19.08864 | 72.85750 | 54 ft | 39 kts | 277° |
| 2026-05-06 14:17 | 19.08917 | 72.85566 | 50 ft | 11 kts | 292° |
| 2026-05-06 14:17 | 19.08951 | 72.85487 | 49 ft | 12 kts | 306° |
| 2026-05-06 14:17 | 19.09011 | 72.85484 | 52 ft | 8 kts | 54° |
| 2026-05-06 14:17 | 19.09025 | 72.85552 | 50 ft | 12 kts | 87° |
| 2026-05-06 14:18 | 19.09028 | 72.85653 | 55 ft | 15 kts | 89° |
| 2026-05-06 14:18 | 19.09031 | 72.85775 | 55 ft | 18 kts | 89° |
| 2026-05-06 14:18 | 19.09032 | 72.85914 | 55 ft | 20 kts | 89° |
| 2026-05-06 14:18 | 19.09034 | 72.86072 | 54 ft | 23 kts | 90° |
| 2026-05-06 14:19 | 19.09035 | 72.86246 | 54 ft | 25 kts | 89° |
| 2026-05-06 14:19 | 19.09036 | 72.86433 | 55 ft | 26 kts | 89° |
| 2026-05-06 14:19 | 19.09041 | 72.86632 | 50 ft | 28 kts | 88° |
| 2026-05-06 14:19 | 19.09044 | 72.86815 | 56 ft | 21 kts | 89° |
| 2026-05-06 14:20 | 19.09047 | 72.86979 | 52 ft | 23 kts | 89° |
| 2026-05-06 14:20 | 19.09050 | 72.87159 | 51 ft | 26 kts | 89° |
| 2026-05-06 14:20 | 19.09057 | 72.87242 | 49 ft | 5 kts | 57° |
| 2026-05-06 14:20 | 19.09099 | 72.87263 | 48 ft | 9 kts | 6° |
| 2026-05-06 14:21 | 19.09176 | 72.87263 | 49 ft | 12 kts | 360° |
| 2026-05-06 14:21 | 19.09222 | 72.87275 | 50 ft | 4 kts | 45° |
| 2026-05-06 14:21 | 19.09239 | 72.87329 | 50 ft | 11 kts | 74° |
| 2026-05-06 14:21 | 19.09264 | 72.87346 | 49 ft | 1 kts | 350° |
| 2026-05-06 14:22 | 19.09289 | 72.87331 | 52 ft | 8 kts | 327° |
| 2026-05-06 14:22 | 19.09335 | 72.87275 | 48 ft | 3 kts | 307° |
| 2026-05-06 14:27 | 19.09334 | 72.87275 | 48 ft | 0 kts | 307° |